sensor_id;sensor_type;location;lat;lon;timestamp;P1;durP1;ratioP1;P2;durP2;ratioP2
68457;SDS011;65384;52.016;5.428;2023-02-01T00:00:29;14.05;;;2.13;;
68457;SDS011;65384;52.016;5.428;2023-02-01T00:02:55;16.23;;;2.17;;
68457;SDS011;65384;52.016;5.428;2023-02-01T00:05:20;11.52;;;1.92;;
68457;SDS011;65384;52.016;5.428;2023-02-01T00:07:46;14.05;;;2.13;;
68457;SDS011;65384;52.016;5.428;2023-02-01T00:10:13;11.57;;;1.60;;
68457;SDS011;65384;52.016;5.428;2023-02-01T00:12:38;14.70;;;2.15;;
68457;SDS011;65384;52.016;5.428;2023-02-01T00:15:04;12.85;;;1.88;;
68457;SDS011;65384;52.016;5.428;2023-02-01T00:17:29;13.23;;;2.20;;
68457;SDS011;65384;52.016;5.428;2023-02-01T00:19:55;15.18;;;1.98;;
68457;SDS011;65384;52.016;5.428;2023-02-01T00:22:20;14.77;;;1.92;;
68457;SDS011;65384;52.016;5.428;2023-02-01T00:24:45;13.93;;;2.15;;
68457;SDS011;65384;52.016;5.428;2023-02-01T00:27:11;19.40;;;2.90;;
68457;SDS011;65384;52.016;5.428;2023-02-01T00:29:42;12.48;;;2.00;;
68457;SDS011;65384;52.016;5.428;2023-02-01T00:32:08;12.00;;;2.22;;
68457;SDS011;65384;52.016;5.428;2023-02-01T00:34:33;17.50;;;2.15;;
68457;SDS011;65384;52.016;5.428;2023-02-01T00:36:58;15.18;;;1.75;;
68457;SDS011;65384;52.016;5.428;2023-02-01T00:39:25;11.32;;;2.30;;
68457;SDS011;65384;52.016;5.428;2023-02-01T00:41:50;12.88;;;1.77;;
68457;SDS011;65384;52.016;5.428;2023-02-01T00:44:16;15.38;;;2.05;;
68457;SDS011;65384;52.016;5.428;2023-02-01T00:46:41;15.43;;;1.85;;
68457;SDS011;65384;52.016;5.428;2023-02-01T00:49:06;17.13;;;2.30;;
68457;SDS011;65384;52.016;5.428;2023-02-01T00:51:34;15.95;;;1.90;;
68457;SDS011;65384;52.016;5.428;2023-02-01T00:53:59;15.32;;;2.05;;
68457;SDS011;65384;52.016;5.428;2023-02-01T00:56:24;15.38;;;1.85;;
68457;SDS011;65384;52.016;5.428;2023-02-01T00:58:52;13.75;;;1.75;;
68457;SDS011;65384;52.016;5.428;2023-02-01T01:01:19;12.10;;;2.85;;
68457;SDS011;65384;52.016;5.428;2023-02-01T01:03:50;14.57;;;1.83;;
68457;SDS011;65384;52.016;5.428;2023-02-01T01:06:19;6.82;;;1.65;;
68457;SDS011;65384;52.016;5.428;2023-02-01T01:08:47;15.38;;;2.55;;
68457;SDS011;65384;52.016;5.428;2023-02-01T01:11:14;13.30;;;1.58;;
68457;SDS011;65384;52.016;5.428;2023-02-01T01:13:41;16.45;;;1.90;;
68457;SDS011;65384;52.016;5.428;2023-02-01T01:16:06;18.73;;;2.17;;
68457;SDS011;65384;52.016;5.428;2023-02-01T01:18:33;15.90;;;1.88;;
68457;SDS011;65384;52.016;5.428;2023-02-01T01:20:59;21.27;;;1.98;;
68457;SDS011;65384;52.016;5.428;2023-02-01T01:23:25;19.80;;;2.20;;
68457;SDS011;65384;52.016;5.428;2023-02-01T01:25:51;14.10;;;1.50;;
68457;SDS011;65384;52.016;5.428;2023-02-01T01:28:16;10.85;;;1.60;;
68457;SDS011;65384;52.016;5.428;2023-02-01T01:30:42;11.88;;;1.70;;
68457;SDS011;65384;52.016;5.428;2023-02-01T01:33:07;14.32;;;1.92;;
68457;SDS011;65384;52.016;5.428;2023-02-01T01:35:33;16.17;;;1.95;;
68457;SDS011;65384;52.016;5.428;2023-02-01T01:37:59;9.63;;;1.48;;
68457;SDS011;65384;52.016;5.428;2023-02-01T01:40:25;16.05;;;1.95;;
68457;SDS011;65384;52.016;5.428;2023-02-01T01:42:52;20.38;;;2.00;;
68457;SDS011;65384;52.016;5.428;2023-02-01T01:45:21;20.75;;;2.38;;
68457;SDS011;65384;52.016;5.428;2023-02-01T01:48:31;12.10;;;1.77;;
68457;SDS011;65384;52.016;5.428;2023-02-01T01:50:44;13.50;;;1.75;;
68457;SDS011;65384;52.016;5.428;2023-02-01T01:53:13;22.00;;;1.70;;
68457;SDS011;65384;52.016;5.428;2023-02-01T01:55:42;12.68;;;1.60;;
68457;SDS011;65384;52.016;5.428;2023-02-01T01:58:10;14.18;;;2.22;;
68457;SDS011;65384;52.016;5.428;2023-02-01T02:00:38;10.25;;;2.00;;
68457;SDS011;65384;52.016;5.428;2023-02-01T02:03:07;13.82;;;1.80;;
68457;SDS011;65384;52.016;5.428;2023-02-01T02:05:54;16.38;;;1.75;;
68457;SDS011;65384;52.016;5.428;2023-02-01T02:08:20;14.10;;;1.90;;
68457;SDS011;65384;52.016;5.428;2023-02-01T02:10:50;13.30;;;1.65;;
68457;SDS011;65384;52.016;5.428;2023-02-01T02:13:25;13.68;;;1.85;;
68457;SDS011;65384;52.016;5.428;2023-02-01T02:16:04;16.33;;;2.05;;
68457;SDS011;65384;52.016;5.428;2023-02-01T02:27:31;10.93;;;1.60;;
68457;SDS011;65384;52.016;5.428;2023-02-01T02:38:18;18.30;;;2.05;;
68457;SDS011;65384;52.016;5.428;2023-02-01T02:41:07;12.15;;;1.67;;
68457;SDS011;65384;52.016;5.428;2023-02-01T02:43:44;15.82;;;1.50;;
68457;SDS011;65384;52.016;5.428;2023-02-01T02:46:33;11.87;;;1.77;;
68457;SDS011;65384;52.016;5.428;2023-02-01T02:49:34;10.70;;;1.80;;
68457;SDS011;65384;52.016;5.428;2023-02-01T02:52:15;18.13;;;2.08;;
68457;SDS011;65384;52.016;5.428;2023-02-01T02:55:01;19.55;;;1.92;;
68457;SDS011;65384;52.016;5.428;2023-02-01T02:57:32;15.98;;;2.00;;
68457;SDS011;65384;52.016;5.428;2023-02-01T03:00:20;9.93;;;1.77;;
68457;SDS011;65384;52.016;5.428;2023-02-01T03:03:06;16.00;;;1.77;;
68457;SDS011;65384;52.016;5.428;2023-02-01T03:05:50;15.18;;;2.47;;
68457;SDS011;65384;52.016;5.428;2023-02-01T03:08:20;8.32;;;1.30;;
68457;SDS011;65384;52.016;5.428;2023-02-01T03:10:48;13.32;;;2.03;;
68457;SDS011;65384;52.016;5.428;2023-02-01T03:15:57;10.15;;;1.80;;
68457;SDS011;65384;52.016;5.428;2023-02-01T03:18:54;17.23;;;2.35;;
68457;SDS011;65384;52.016;5.428;2023-02-01T03:24:10;14.55;;;1.83;;
68457;SDS011;65384;52.016;5.428;2023-02-01T03:26:39;17.05;;;2.08;;
68457;SDS011;65384;52.016;5.428;2023-02-01T03:29:29;10.65;;;1.50;;
68457;SDS011;65384;52.016;5.428;2023-02-01T03:31:54;14.38;;;1.77;;
68457;SDS011;65384;52.016;5.428;2023-02-01T03:34:20;16.65;;;2.20;;
68457;SDS011;65384;52.016;5.428;2023-02-01T03:36:48;15.93;;;2.30;;
68457;SDS011;65384;52.016;5.428;2023-02-01T03:39:27;15.30;;;2.08;;
68457;SDS011;65384;52.016;5.428;2023-02-01T03:42:20;12.43;;;2.33;;
68457;SDS011;65384;52.016;5.428;2023-02-01T03:47:18;18.88;;;2.17;;
68457;SDS011;65384;52.016;5.428;2023-02-01T03:49:47;11.90;;;1.65;;
68457;SDS011;65384;52.016;5.428;2023-02-01T03:52:25;13.63;;;1.83;;
68457;SDS011;65384;52.016;5.428;2023-02-01T03:54:54;12.48;;;1.65;;
68457;SDS011;65384;52.016;5.428;2023-02-01T03:57:43;19.27;;;1.88;;
68457;SDS011;65384;52.016;5.428;2023-02-01T04:00:08;17.98;;;2.85;;
68457;SDS011;65384;52.016;5.428;2023-02-01T04:02:36;15.60;;;1.73;;
68457;SDS011;65384;52.016;5.428;2023-02-01T04:05:02;12.30;;;1.70;;
68457;SDS011;65384;52.016;5.428;2023-02-01T04:07:27;13.68;;;1.88;;
68457;SDS011;65384;52.016;5.428;2023-02-01T04:09:53;17.42;;;1.77;;
68457;SDS011;65384;52.016;5.428;2023-02-01T04:12:18;12.63;;;1.65;;
68457;SDS011;65384;52.016;5.428;2023-02-01T04:14:43;10.52;;;1.80;;
68457;SDS011;65384;52.016;5.428;2023-02-01T04:17:08;16.67;;;1.80;;
68457;SDS011;65384;52.016;5.428;2023-02-01T04:19:34;15.07;;;2.35;;
68457;SDS011;65384;52.016;5.428;2023-02-01T04:21:59;17.60;;;2.05;;
68457;SDS011;65384;52.016;5.428;2023-02-01T04:24:24;14.43;;;2.47;;
68457;SDS011;65384;52.016;5.428;2023-02-01T04:26:50;14.93;;;2.08;;
68457;SDS011;65384;52.016;5.428;2023-02-01T04:29:15;11.30;;;1.83;;
68457;SDS011;65384;52.016;5.428;2023-02-01T04:31:40;13.05;;;2.20;;
68457;SDS011;65384;52.016;5.428;2023-02-01T04:34:06;15.40;;;1.83;;
68457;SDS011;65384;52.016;5.428;2023-02-01T04:36:31;17.35;;;2.60;;
68457;SDS011;65384;52.016;5.428;2023-02-01T04:38:56;14.45;;;1.92;;
68457;SDS011;65384;52.016;5.428;2023-02-01T04:41:22;13.65;;;2.00;;
68457;SDS011;65384;52.016;5.428;2023-02-01T04:43:48;17.30;;;2.50;;
68457;SDS011;65384;52.016;5.428;2023-02-01T04:46:14;8.70;;;1.67;;
68457;SDS011;65384;52.016;5.428;2023-02-01T04:48:40;17.35;;;2.15;;
68457;SDS011;65384;52.016;5.428;2023-02-01T04:51:05;16.85;;;2.17;;
68457;SDS011;65384;52.016;5.428;2023-02-01T04:53:31;14.73;;;2.00;;
68457;SDS011;65384;52.016;5.428;2023-02-01T04:55:56;14.98;;;2.35;;
68457;SDS011;65384;52.016;5.428;2023-02-01T04:58:22;15.23;;;2.30;;
68457;SDS011;65384;52.016;5.428;2023-02-01T05:00:47;15.10;;;2.38;;
68457;SDS011;65384;52.016;5.428;2023-02-01T05:03:12;12.82;;;1.88;;
68457;SDS011;65384;52.016;5.428;2023-02-01T05:05:38;12.45;;;2.10;;
68457;SDS011;65384;52.016;5.428;2023-02-01T05:08:03;14.38;;;1.90;;
68457;SDS011;65384;52.016;5.428;2023-02-01T05:10:29;18.30;;;2.40;;
68457;SDS011;65384;52.016;5.428;2023-02-01T05:12:54;13.35;;;1.88;;
68457;SDS011;65384;52.016;5.428;2023-02-01T05:15:40;11.20;;;1.90;;
68457;SDS011;65384;52.016;5.428;2023-02-01T05:18:05;16.15;;;1.80;;
68457;SDS011;65384;52.016;5.428;2023-02-01T05:20:30;13.00;;;2.03;;
68457;SDS011;65384;52.016;5.428;2023-02-01T05:22:56;13.52;;;2.20;;
68457;SDS011;65384;52.016;5.428;2023-02-01T05:25:21;16.42;;;2.03;;
68457;SDS011;65384;52.016;5.428;2023-02-01T05:27:46;12.75;;;1.85;;
68457;SDS011;65384;52.016;5.428;2023-02-01T05:30:12;17.13;;;2.13;;
68457;SDS011;65384;52.016;5.428;2023-02-01T05:32:37;17.55;;;1.88;;
68457;SDS011;65384;52.016;5.428;2023-02-01T05:35:03;16.27;;;2.08;;
68457;SDS011;65384;52.016;5.428;2023-02-01T05:37:28;12.05;;;2.05;;
68457;SDS011;65384;52.016;5.428;2023-02-01T05:39:53;14.45;;;2.13;;
68457;SDS011;65384;52.016;5.428;2023-02-01T05:42:19;13.73;;;1.92;;
68457;SDS011;65384;52.016;5.428;2023-02-01T05:44:44;13.38;;;2.45;;
68457;SDS011;65384;52.016;5.428;2023-02-01T05:47:10;16.55;;;2.20;;
68457;SDS011;65384;52.016;5.428;2023-02-01T05:49:35;15.25;;;2.92;;
68457;SDS011;65384;52.016;5.428;2023-02-01T05:52:00;17.80;;;2.10;;
68457;SDS011;65384;52.016;5.428;2023-02-01T05:54:26;15.90;;;2.00;;
68457;SDS011;65384;52.016;5.428;2023-02-01T05:56:51;10.57;;;1.83;;
68457;SDS011;65384;52.016;5.428;2023-02-01T05:59:17;19.70;;;2.65;;
68457;SDS011;65384;52.016;5.428;2023-02-01T06:01:42;13.73;;;2.35;;
68457;SDS011;65384;52.016;5.428;2023-02-01T06:04:08;16.30;;;1.98;;
68457;SDS011;65384;52.016;5.428;2023-02-01T06:06:33;12.43;;;1.98;;
68457;SDS011;65384;52.016;5.428;2023-02-01T06:08:59;14.40;;;2.67;;
68457;SDS011;65384;52.016;5.428;2023-02-01T06:11:25;15.52;;;2.47;;
68457;SDS011;65384;52.016;5.428;2023-02-01T06:13:50;13.00;;;2.17;;
68457;SDS011;65384;52.016;5.428;2023-02-01T06:16:15;10.98;;;1.92;;
68457;SDS011;65384;52.016;5.428;2023-02-01T06:18:41;12.68;;;2.10;;
68457;SDS011;65384;52.016;5.428;2023-02-01T06:21:07;17.75;;;2.03;;
68457;SDS011;65384;52.016;5.428;2023-02-01T06:23:32;10.20;;;2.50;;
68457;SDS011;65384;52.016;5.428;2023-02-01T06:25:59;15.05;;;2.00;;
68457;SDS011;65384;52.016;5.428;2023-02-01T06:28:26;13.23;;;2.15;;
68457;SDS011;65384;52.016;5.428;2023-02-01T06:30:52;11.88;;;1.90;;
68457;SDS011;65384;52.016;5.428;2023-02-01T06:33:18;6.85;;;1.63;;
68457;SDS011;65384;52.016;5.428;2023-02-01T06:35:43;10.55;;;1.90;;
68457;SDS011;65384;52.016;5.428;2023-02-01T06:38:09;16.05;;;2.53;;
68457;SDS011;65384;52.016;5.428;2023-02-01T06:40:35;12.02;;;2.45;;
68457;SDS011;65384;52.016;5.428;2023-02-01T06:43:01;14.50;;;2.03;;
68457;SDS011;65384;52.016;5.428;2023-02-01T06:45:26;21.30;;;2.92;;
68457;SDS011;65384;52.016;5.428;2023-02-01T06:47:51;17.35;;;2.10;;
68457;SDS011;65384;52.016;5.428;2023-02-01T06:50:17;19.27;;;2.38;;
68457;SDS011;65384;52.016;5.428;2023-02-01T06:52:42;12.25;;;2.13;;
68457;SDS011;65384;52.016;5.428;2023-02-01T06:55:08;20.13;;;2.20;;
68457;SDS011;65384;52.016;5.428;2023-02-01T06:57:33;13.05;;;2.10;;
68457;SDS011;65384;52.016;5.428;2023-02-01T07:00:00;15.40;;;1.70;;
68457;SDS011;65384;52.016;5.428;2023-02-01T07:02:27;13.88;;;2.10;;
68457;SDS011;65384;52.016;5.428;2023-02-01T07:04:53;16.50;;;2.28;;
68457;SDS011;65384;52.016;5.428;2023-02-01T07:07:18;14.55;;;2.20;;
68457;SDS011;65384;52.016;5.428;2023-02-01T07:09:44;14.32;;;2.08;;
68457;SDS011;65384;52.016;5.428;2023-02-01T07:12:10;18.20;;;2.45;;
68457;SDS011;65384;52.016;5.428;2023-02-01T07:14:35;19.38;;;2.33;;
68457;SDS011;65384;52.016;5.428;2023-02-01T07:17:01;8.02;;;1.90;;
68457;SDS011;65384;52.016;5.428;2023-02-01T07:19:26;17.25;;;2.22;;
68457;SDS011;65384;52.016;5.428;2023-02-01T07:21:51;15.00;;;2.00;;
68457;SDS011;65384;52.016;5.428;2023-02-01T07:24:17;13.07;;;2.05;;
68457;SDS011;65384;52.016;5.428;2023-02-01T07:26:42;11.70;;;1.60;;
68457;SDS011;65384;52.016;5.428;2023-02-01T07:29:07;15.85;;;2.00;;
68457;SDS011;65384;52.016;5.428;2023-02-01T07:31:33;17.90;;;2.53;;
68457;SDS011;65384;52.016;5.428;2023-02-01T07:33:58;17.95;;;2.20;;
68457;SDS011;65384;52.016;5.428;2023-02-01T07:36:24;11.55;;;2.22;;
68457;SDS011;65384;52.016;5.428;2023-02-01T07:38:49;18.13;;;2.13;;
68457;SDS011;65384;52.016;5.428;2023-02-01T07:41:16;7.72;;;1.50;;
68457;SDS011;65384;52.016;5.428;2023-02-01T07:43:42;11.73;;;1.75;;
68457;SDS011;65384;52.016;5.428;2023-02-01T07:46:08;15.27;;;2.40;;
68457;SDS011;65384;52.016;5.428;2023-02-01T07:48:34;16.10;;;1.92;;
68457;SDS011;65384;52.016;5.428;2023-02-01T07:51:04;16.83;;;2.35;;
68457;SDS011;65384;52.016;5.428;2023-02-01T07:53:34;16.10;;;1.88;;
68457;SDS011;65384;52.016;5.428;2023-02-01T07:56:00;13.88;;;1.88;;
68457;SDS011;65384;52.016;5.428;2023-02-01T07:58:26;10.88;;;2.08;;
68457;SDS011;65384;52.016;5.428;2023-02-01T08:00:52;12.30;;;2.47;;
68457;SDS011;65384;52.016;5.428;2023-02-01T08:03:36;11.15;;;1.85;;
68457;SDS011;65384;52.016;5.428;2023-02-01T08:06:02;10.00;;;1.50;;
68457;SDS011;65384;52.016;5.428;2023-02-01T08:08:28;14.18;;;1.90;;
68457;SDS011;65384;52.016;5.428;2023-02-01T08:10:57;13.85;;;2.30;;
68457;SDS011;65384;52.016;5.428;2023-02-01T08:13:23;14.00;;;1.77;;
68457;SDS011;65384;52.016;5.428;2023-02-01T08:15:48;12.85;;;1.80;;
68457;SDS011;65384;52.016;5.428;2023-02-01T08:18:14;15.80;;;2.00;;
68457;SDS011;65384;52.016;5.428;2023-02-01T08:20:41;12.50;;;1.80;;
68457;SDS011;65384;52.016;5.428;2023-02-01T08:23:08;14.75;;;2.22;;
68457;SDS011;65384;52.016;5.428;2023-02-01T08:25:34;13.07;;;1.90;;
68457;SDS011;65384;52.016;5.428;2023-02-01T08:28:01;19.08;;;2.55;;
68457;SDS011;65384;52.016;5.428;2023-02-01T08:30:26;10.77;;;1.55;;
68457;SDS011;65384;52.016;5.428;2023-02-01T08:32:52;12.68;;;2.08;;
68457;SDS011;65384;52.016;5.428;2023-02-01T08:35:17;10.77;;;2.13;;
68457;SDS011;65384;52.016;5.428;2023-02-01T08:37:43;10.00;;;1.83;;
68457;SDS011;65384;52.016;5.428;2023-02-01T08:40:08;16.27;;;2.00;;
68457;SDS011;65384;52.016;5.428;2023-02-01T08:42:35;14.77;;;2.03;;
68457;SDS011;65384;52.016;5.428;2023-02-01T08:45:15;9.75;;;1.80;;
68457;SDS011;65384;52.016;5.428;2023-02-01T08:47:41;13.68;;;2.45;;
68457;SDS011;65384;52.016;5.428;2023-02-01T08:50:07;15.68;;;2.30;;
68457;SDS011;65384;52.016;5.428;2023-02-01T08:52:34;10.95;;;2.13;;
68457;SDS011;65384;52.016;5.428;2023-02-01T08:54:59;15.13;;;2.40;;
68457;SDS011;65384;52.016;5.428;2023-02-01T08:57:24;13.60;;;2.42;;
68457;SDS011;65384;52.016;5.428;2023-02-01T08:59:50;15.00;;;2.55;;
68457;SDS011;65384;52.016;5.428;2023-02-01T09:02:15;14.32;;;2.42;;
68457;SDS011;65384;52.016;5.428;2023-02-01T09:04:41;15.60;;;2.15;;
68457;SDS011;65384;52.016;5.428;2023-02-01T09:07:10;17.95;;;2.35;;
68457;SDS011;65384;52.016;5.428;2023-02-01T09:09:36;21.90;;;2.90;;
68457;SDS011;65384;52.016;5.428;2023-02-01T09:12:02;12.23;;;2.00;;
68457;SDS011;65384;52.016;5.428;2023-02-01T09:14:28;19.70;;;2.25;;
68457;SDS011;65384;52.016;5.428;2023-02-01T09:16:53;8.90;;;1.98;;
68457;SDS011;65384;52.016;5.428;2023-02-01T09:19:18;12.35;;;2.00;;
68457;SDS011;65384;52.016;5.428;2023-02-01T09:21:44;11.90;;;1.77;;
68457;SDS011;65384;52.016;5.428;2023-02-01T09:24:10;14.30;;;1.80;;
68457;SDS011;65384;52.016;5.428;2023-02-01T09:26:36;13.25;;;2.00;;
68457;SDS011;65384;52.016;5.428;2023-02-01T09:29:02;12.02;;;1.90;;
68457;SDS011;65384;52.016;5.428;2023-02-01T09:31:28;12.65;;;1.55;;
68457;SDS011;65384;52.016;5.428;2023-02-01T09:33:54;8.77;;;1.63;;
68457;SDS011;65384;52.016;5.428;2023-02-01T09:36:20;9.38;;;1.60;;
68457;SDS011;65384;52.016;5.428;2023-02-01T09:38:45;16.30;;;2.17;;
68457;SDS011;65384;52.016;5.428;2023-02-01T09:46:46;14.30;;;2.38;;
68457;SDS011;65384;52.016;5.428;2023-02-01T09:49:16;12.90;;;2.10;;
68457;SDS011;65384;52.016;5.428;2023-02-01T09:51:45;13.80;;;2.20;;
68457;SDS011;65384;52.016;5.428;2023-02-01T09:54:13;15.50;;;2.33;;
68457;SDS011;65384;52.016;5.428;2023-02-01T09:59:20;13.77;;;1.98;;
68457;SDS011;65384;52.016;5.428;2023-02-01T10:01:48;10.77;;;2.25;;
68457;SDS011;65384;52.016;5.428;2023-02-01T10:04:14;15.48;;;2.55;;
68457;SDS011;65384;52.016;5.428;2023-02-01T10:12:35;10.52;;;2.03;;
68457;SDS011;65384;52.016;5.428;2023-02-01T10:15:15;13.77;;;2.08;;
68457;SDS011;65384;52.016;5.428;2023-02-01T10:28:22;16.27;;;2.70;;
68457;SDS011;65384;52.016;5.428;2023-02-01T10:30:49;15.38;;;2.25;;
68457;SDS011;65384;52.016;5.428;2023-02-01T10:33:19;15.30;;;2.58;;
68457;SDS011;65384;52.016;5.428;2023-02-01T10:35:55;12.07;;;2.08;;
68457;SDS011;65384;52.016;5.428;2023-02-01T10:38:26;10.88;;;2.65;;
68457;SDS011;65384;52.016;5.428;2023-02-01T10:41:01;10.43;;;2.13;;
68457;SDS011;65384;52.016;5.428;2023-02-01T10:43:29;16.02;;;2.03;;
68457;SDS011;65384;52.016;5.428;2023-02-01T10:45:55;17.80;;;2.40;;
68457;SDS011;65384;52.016;5.428;2023-02-01T10:48:21;15.90;;;2.10;;
68457;SDS011;65384;52.016;5.428;2023-02-01T10:50:55;13.75;;;2.83;;
68457;SDS011;65384;52.016;5.428;2023-02-01T10:56:10;12.27;;;2.40;;
68457;SDS011;65384;52.016;5.428;2023-02-01T10:58:36;12.70;;;2.38;;
68457;SDS011;65384;52.016;5.428;2023-02-01T11:01:09;13.73;;;2.15;;
68457;SDS011;65384;52.016;5.428;2023-02-01T11:11:32;12.05;;;2.10;;
68457;SDS011;65384;52.016;5.428;2023-02-01T11:17:32;18.60;;;2.78;;
68457;SDS011;65384;52.016;5.428;2023-02-01T11:19:47;14.80;;;2.17;;
68457;SDS011;65384;52.016;5.428;2023-02-01T11:22:21;17.33;;;2.00;;
68457;SDS011;65384;52.016;5.428;2023-02-01T11:24:47;18.25;;;2.28;;
68457;SDS011;65384;52.016;5.428;2023-02-01T11:27:14;13.57;;;2.03;;
68457;SDS011;65384;52.016;5.428;2023-02-01T11:29:43;18.95;;;2.53;;
68457;SDS011;65384;52.016;5.428;2023-02-01T11:32:12;12.68;;;2.20;;
68457;SDS011;65384;52.016;5.428;2023-02-01T11:34:39;18.95;;;2.15;;
68457;SDS011;65384;52.016;5.428;2023-02-01T11:37:13;15.35;;;2.00;;
68457;SDS011;65384;52.016;5.428;2023-02-01T11:39:55;17.73;;;2.53;;
68457;SDS011;65384;52.016;5.428;2023-02-01T11:42:22;13.98;;;2.25;;
68457;SDS011;65384;52.016;5.428;2023-02-01T11:44:48;12.52;;;2.13;;
68457;SDS011;65384;52.016;5.428;2023-02-01T11:47:30;11.52;;;1.85;;
68457;SDS011;65384;52.016;5.428;2023-02-01T11:49:57;12.45;;;1.75;;
68457;SDS011;65384;52.016;5.428;2023-02-01T11:55:20;11.23;;;1.70;;
68457;SDS011;65384;52.016;5.428;2023-02-01T12:11:47;13.20;;;2.45;;
68457;SDS011;65384;52.016;5.428;2023-02-01T12:36:14;13.27;;;2.08;;
68457;SDS011;65384;52.016;5.428;2023-02-01T12:47:40;20.38;;;1.95;;
68457;SDS011;65384;52.016;5.428;2023-02-01T12:52:50;17.88;;;2.42;;
68457;SDS011;65384;52.016;5.428;2023-02-01T12:55:23;10.20;;;1.92;;
68457;SDS011;65384;52.016;5.428;2023-02-01T12:57:52;19.27;;;2.25;;
68457;SDS011;65384;52.016;5.428;2023-02-01T13:03:22;12.80;;;2.50;;
68457;SDS011;65384;52.016;5.428;2023-02-01T13:06:35;18.90;;;2.42;;
68457;SDS011;65384;52.016;5.428;2023-02-01T13:11:10;15.40;;;1.63;;
68457;SDS011;65384;52.016;5.428;2023-02-01T13:16:43;10.38;;;2.35;;
68457;SDS011;65384;52.016;5.428;2023-02-01T13:19:12;12.15;;;1.63;;
68457;SDS011;65384;52.016;5.428;2023-02-01T13:21:55;12.73;;;2.10;;
68457;SDS011;65384;52.016;5.428;2023-02-01T13:24:36;9.80;;;1.55;;
68457;SDS011;65384;52.016;5.428;2023-02-01T13:27:04;8.90;;;1.83;;
68457;SDS011;65384;52.016;5.428;2023-02-01T13:29:30;12.25;;;1.95;;
68457;SDS011;65384;52.016;5.428;2023-02-01T13:42:53;10.88;;;1.75;;
68457;SDS011;65384;52.016;5.428;2023-02-01T13:45:22;12.65;;;1.70;;
68457;SDS011;65384;52.016;5.428;2023-02-01T13:47:52;11.73;;;1.95;;
68457;SDS011;65384;52.016;5.428;2023-02-01T13:58:11;11.57;;;1.63;;
68457;SDS011;65384;52.016;5.428;2023-02-01T14:00:41;14.45;;;1.90;;
68457;SDS011;65384;52.016;5.428;2023-02-01T14:03:19;10.93;;;2.13;;
68457;SDS011;65384;52.016;5.428;2023-02-01T14:23:41;13.10;;;2.20;;
68457;SDS011;65384;52.016;5.428;2023-02-01T14:26:08;12.57;;;1.92;;
68457;SDS011;65384;52.016;5.428;2023-02-01T14:28:38;13.07;;;2.22;;
68457;SDS011;65384;52.016;5.428;2023-02-01T14:33:49;18.45;;;3.25;;
68457;SDS011;65384;52.016;5.428;2023-02-01T14:36:21;14.65;;;2.30;;
68457;SDS011;65384;52.016;5.428;2023-02-01T14:38:48;16.35;;;2.97;;
68457;SDS011;65384;52.016;5.428;2023-02-01T14:49:32;14.57;;;2.70;;
68457;SDS011;65384;52.016;5.428;2023-02-01T14:52:00;16.02;;;2.38;;
68457;SDS011;65384;52.016;5.428;2023-02-01T14:54:27;13.32;;;2.45;;
68457;SDS011;65384;52.016;5.428;2023-02-01T14:56:53;13.77;;;1.70;;
68457;SDS011;65384;52.016;5.428;2023-02-01T14:59:20;16.67;;;2.75;;
68457;SDS011;65384;52.016;5.428;2023-02-01T15:01:52;11.23;;;2.40;;
68457;SDS011;65384;52.016;5.428;2023-02-01T15:04:19;11.27;;;2.05;;
68457;SDS011;65384;52.016;5.428;2023-02-01T15:09:45;14.77;;;2.10;;
68457;SDS011;65384;52.016;5.428;2023-02-01T15:14:38;17.55;;;2.42;;
68457;SDS011;65384;52.016;5.428;2023-02-01T15:17:18;26.73;;;2.67;;
68457;SDS011;65384;52.016;5.428;2023-02-01T15:20:02;16.23;;;2.45;;
68457;SDS011;65384;52.016;5.428;2023-02-01T15:22:29;13.85;;;1.98;;
68457;SDS011;65384;52.016;5.428;2023-02-01T15:24:59;14.15;;;2.53;;
68457;SDS011;65384;52.016;5.428;2023-02-01T15:27:25;12.80;;;2.03;;
68457;SDS011;65384;52.016;5.428;2023-02-01T15:29:52;12.13;;;1.67;;
68457;SDS011;65384;52.016;5.428;2023-02-01T15:32:30;18.65;;;2.10;;
68457;SDS011;65384;52.016;5.428;2023-02-01T15:34:58;11.65;;;2.05;;
68457;SDS011;65384;52.016;5.428;2023-02-01T15:37:28;18.15;;;2.15;;
68457;SDS011;65384;52.016;5.428;2023-02-01T15:42:34;15.52;;;1.90;;
68457;SDS011;65384;52.016;5.428;2023-02-01T15:44:59;16.65;;;2.65;;
68457;SDS011;65384;52.016;5.428;2023-02-01T15:47:26;14.30;;;2.10;;
68457;SDS011;65384;52.016;5.428;2023-02-01T15:49:54;17.42;;;2.00;;
68457;SDS011;65384;52.016;5.428;2023-02-01T15:52:24;16.67;;;2.85;;
68457;SDS011;65384;52.016;5.428;2023-02-01T15:54:56;12.60;;;2.75;;
68457;SDS011;65384;52.016;5.428;2023-02-01T15:57:27;15.23;;;2.25;;
68457;SDS011;65384;52.016;5.428;2023-02-01T15:59:56;17.75;;;3.00;;
68457;SDS011;65384;52.016;5.428;2023-02-01T16:04:59;16.15;;;3.38;;
68457;SDS011;65384;52.016;5.428;2023-02-01T16:07:28;16.95;;;3.05;;
68457;SDS011;65384;52.016;5.428;2023-02-01T16:10:00;14.30;;;3.58;;
68457;SDS011;65384;52.016;5.428;2023-02-01T16:12:33;21.52;;;3.03;;
68457;SDS011;65384;52.016;5.428;2023-02-01T16:15:07;14.88;;;2.40;;
68457;SDS011;65384;52.016;5.428;2023-02-01T16:17:33;15.98;;;2.13;;
68457;SDS011;65384;52.016;5.428;2023-02-01T16:19:58;17.40;;;2.33;;
68457;SDS011;65384;52.016;5.428;2023-02-01T16:22:24;13.52;;;2.53;;
68457;SDS011;65384;52.016;5.428;2023-02-01T16:24:50;19.58;;;2.15;;
68457;SDS011;65384;52.016;5.428;2023-02-01T16:27:15;14.05;;;2.08;;
68457;SDS011;65384;52.016;5.428;2023-02-01T16:29:40;17.13;;;2.10;;
68457;SDS011;65384;52.016;5.428;2023-02-01T16:32:06;11.27;;;2.00;;
68457;SDS011;65384;52.016;5.428;2023-02-01T16:34:33;15.68;;;2.33;;
68457;SDS011;65384;52.016;5.428;2023-02-01T16:37:00;15.73;;;2.20;;
68457;SDS011;65384;52.016;5.428;2023-02-01T16:39:27;11.20;;;2.22;;
68457;SDS011;65384;52.016;5.428;2023-02-01T16:41:52;14.10;;;2.47;;
68457;SDS011;65384;52.016;5.428;2023-02-01T16:44:18;14.38;;;2.80;;
68457;SDS011;65384;52.016;5.428;2023-02-01T16:46:44;15.77;;;2.42;;
68457;SDS011;65384;52.016;5.428;2023-02-01T16:49:20;12.88;;;2.50;;
68457;SDS011;65384;52.016;5.428;2023-02-01T16:51:47;14.38;;;2.42;;
68457;SDS011;65384;52.016;5.428;2023-02-01T16:54:14;16.70;;;2.53;;
68457;SDS011;65384;52.016;5.428;2023-02-01T16:56:40;9.77;;;1.45;;
68457;SDS011;65384;52.016;5.428;2023-02-01T16:59:07;14.05;;;2.08;;
68457;SDS011;65384;52.016;5.428;2023-02-01T17:01:33;14.07;;;2.25;;
68457;SDS011;65384;52.016;5.428;2023-02-01T17:03:59;10.02;;;2.00;;
68457;SDS011;65384;52.016;5.428;2023-02-01T17:06:24;10.48;;;2.05;;
68457;SDS011;65384;52.016;5.428;2023-02-01T17:08:51;11.40;;;2.35;;
68457;SDS011;65384;52.016;5.428;2023-02-01T17:11:19;14.25;;;2.17;;
68457;SDS011;65384;52.016;5.428;2023-02-01T17:13:44;17.25;;;2.88;;
68457;SDS011;65384;52.016;5.428;2023-02-01T17:16:18;20.33;;;4.10;;
68457;SDS011;65384;52.016;5.428;2023-02-01T17:19:06;25.98;;;7.00;;
68457;SDS011;65384;52.016;5.428;2023-02-01T17:21:44;27.65;;;8.75;;
68457;SDS011;65384;52.016;5.428;2023-02-01T17:26:40;28.10;;;9.13;;
68457;SDS011;65384;52.016;5.428;2023-02-01T17:29:06;38.10;;;10.30;;
68457;SDS011;65384;52.016;5.428;2023-02-01T17:31:32;32.05;;;8.57;;
68457;SDS011;65384;52.016;5.428;2023-02-01T17:33:59;22.15;;;6.20;;
68457;SDS011;65384;52.016;5.428;2023-02-01T17:36:24;22.60;;;5.97;;
68457;SDS011;65384;52.016;5.428;2023-02-01T17:38:50;16.40;;;4.03;;
68457;SDS011;65384;52.016;5.428;2023-02-01T17:41:16;20.42;;;3.75;;
68457;SDS011;65384;52.016;5.428;2023-02-01T17:43:41;15.20;;;3.13;;
68457;SDS011;65384;52.016;5.428;2023-02-01T17:46:14;12.57;;;2.08;;